createdAt,value
2019-04-21T00:00:30.171Z,25.73
2019-04-21T00:04:48.434Z,28.10
2019-04-21T00:13:08.172Z,31.97
2019-04-21T00:17:05.872Z,28.17
2019-04-21T00:21:15.135Z,38.43
2019-04-21T00:25:32.289Z,35.47
2019-04-21T00:29:46.929Z,37.60
2019-04-21T00:33:34.333Z,37.80
2019-04-21T00:38:00.604Z,31.63
2019-04-21T00:42:05.500Z,29.80
2019-04-21T00:46:03.455Z,30.77
2019-04-21T00:50:25.751Z,29.60
2019-04-21T00:54:46.127Z,26.07
2019-04-21T00:58:38.725Z,28.27
2019-04-21T01:02:56.182Z,34.17
2019-04-21T01:07:05.272Z,30.83
2019-04-21T01:10:54.180Z,36.27
2019-04-21T01:15:19.569Z,34.27
2019-04-21T01:19:15.728Z,33.77
2019-04-21T01:23:06.439Z,36.33
2019-04-21T01:27:22.596Z,36.20
2019-04-21T01:31:36.585Z,36.27
2019-04-21T01:35:48.506Z,34.23
2019-04-21T01:40:05.926Z,36.07
2019-04-21T01:44:01.093Z,34.03
2019-04-21T01:48:05.804Z,32.67
2019-04-21T01:52:24.715Z,36.07
2019-04-21T01:56:35.791Z,35.47
2019-04-21T02:00:42.488Z,33.07
2019-04-21T02:05:00.750Z,36.40
2019-04-21T02:08:57.965Z,30.40
2019-04-21T02:13:08.598Z,35.57
2019-04-21T02:17:17.336Z,36.83
2019-04-21T02:21:17.852Z,42.77
2019-04-21T02:25:34.982Z,42.90
2019-04-21T02:29:45.237Z,41.17
2019-04-21T02:42:15.529Z,38.77
2019-04-21T02:46:27.456Z,40.77
2019-04-21T02:50:30.461Z,38.23
2019-04-21T02:58:52.969Z,35.17
2019-04-21T03:03:26.143Z,35.30
2019-04-21T03:11:28.961Z,37.57
2019-04-21T03:19:46.061Z,32.47
2019-04-21T03:27:57.317Z,32.73
2019-04-21T03:40:16.725Z,34.43
2019-04-21T03:44:28.864Z,37.63
2019-04-21T03:52:53.328Z,46.13
2019-04-21T04:01:08.131Z,44.57
2019-04-21T04:05:37.821Z,43.87
2019-04-21T04:09:43.414Z,49.83
2019-04-21T04:13:59.136Z,47.30
2019-04-21T04:17:49.925Z,44.03
2019-04-21T04:22:09.268Z,41.00
2019-04-21T04:26:09.257Z,45.90
2019-04-21T04:34:40.534Z,33.17
2019-04-21T04:38:49.623Z,32.40
2019-04-21T04:46:55.748Z,32.00
2019-04-21T04:55:06.523Z,26.20
2019-04-21T05:03:24.355Z,24.90
2019-04-21T05:07:36.201Z,24.97
2019-04-21T05:15:42.103Z,22.43
2019-04-21T05:20:03.024Z,21.83
2019-04-21T05:23:51.176Z,22.37
2019-04-21T05:27:54.025Z,24.23
2019-04-21T05:32:13.361Z,21.80
2019-04-21T05:36:27.887Z,19.60
2019-04-21T05:40:31.868Z,22.13
2019-04-21T05:44:58.157Z,18.93
2019-04-21T05:48:57.134Z,19.03
2019-04-21T05:53:00.314Z,21.07
2019-04-21T05:57:11.504Z,46.47
2019-04-21T06:09:48.760Z,16.83
2019-04-21T06:13:55.408Z,18.53
2019-04-21T06:17:57.916Z,15.87
2019-04-21T06:22:06.045Z,16.03
2019-04-21T06:26:29.183Z,17.90
2019-04-21T06:30:19.509Z,25.67
2019-04-21T06:34:41.092Z,17.33
2019-04-21T06:38:59.571Z,17.93
2019-04-21T06:43:11.065Z,16.47
2019-04-21T06:47:06.072Z,17.00
2019-04-21T06:51:20.491Z,17.70
2019-04-21T06:55:19.930Z,13.63
2019-04-21T06:59:26.555Z,16.27
2019-04-21T07:03:45.044Z,14.40
2019-04-21T07:08:10.522Z,15.23
2019-04-21T07:11:53.831Z,12.63
2019-04-21T07:16:07.247Z,18.90
2019-04-21T07:24:21.623Z,14.50
2019-04-21T07:28:25.407Z,13.63
2019-04-21T07:32:36.053Z,24.13
2019-04-21T07:36:46.434Z,15.60
2019-04-21T07:40:43.088Z,15.10
2019-04-21T07:44:49.462Z,11.97
2019-04-21T07:49:01.757Z,12.37
2019-04-21T07:53:25.559Z,11.93
2019-04-21T07:57:15.567Z,14.60
2019-04-21T08:01:30.706Z,13.83
2019-04-21T08:05:39.189Z,15.47
2019-04-21T08:09:46.696Z,13.03
2019-04-21T08:13:55.100Z,13.93
2019-04-21T08:17:59.631Z,13.90
2019-04-21T08:22:11.050Z,14.13
2019-04-21T08:26:17.527Z,14.63
2019-04-21T08:34:33.871Z,17.17
2019-04-21T08:38:42.635Z,16.10
2019-04-21T08:42:52.045Z,14.73
2019-04-21T08:46:58.815Z,15.07
2019-04-21T08:51:22.523Z,17.57
2019-04-21T08:55:24.966Z,14.33
2019-04-21T08:59:40.438Z,21.63
2019-04-21T09:03:59.807Z,16.90
2019-04-21T09:08:03.918Z,20.90
2019-04-21T09:12:10.991Z,12.27
2019-04-21T09:16:20.190Z,11.83
2019-04-21T09:24:41.032Z,14.93
2019-04-21T09:28:39.500Z,14.63
2019-04-21T09:32:37.055Z,15.50
2019-04-21T09:36:51.216Z,14.83
2019-04-21T09:40:54.486Z,13.23
2019-04-21T09:45:03.204Z,17.87
2019-04-21T09:49:12.529Z,12.07
2019-04-21T09:53:24.871Z,11.27
2019-04-21T09:57:35.017Z,12.83
2019-04-21T10:01:45.088Z,11.23
2019-04-21T10:05:41.543Z,12.70
2019-04-21T10:09:47.979Z,9.70
2019-04-21T10:13:55.242Z,9.67
2019-04-21T10:18:13.048Z,12.50
2019-04-21T10:22:19.430Z,10.90
2019-04-21T10:26:28.641Z,9.97
2019-04-21T10:30:36.402Z,10.90
2019-04-21T10:34:45.228Z,9.37
2019-04-21T10:38:53.573Z,13.40
2019-04-21T10:43:00.447Z,12.70
2019-04-21T10:47:06.976Z,11.03
2019-04-21T10:51:14.870Z,9.90
2019-04-21T10:55:41.725Z,10.10
2019-04-21T10:59:31.012Z,11.43
2019-04-21T11:03:40.384Z,11.63
2019-04-21T11:08:07.748Z,9.83
2019-04-21T11:12:02.138Z,9.83
2019-04-21T11:16:08.869Z,8.17
2019-04-21T11:20:15.358Z,8.53
2019-04-21T11:24:22.932Z,11.13
2019-04-21T11:28:29.363Z,9.73
2019-04-21T11:32:36.986Z,11.53
2019-04-21T11:36:43.923Z,9.77
2019-04-21T11:40:51.729Z,10.37
2019-04-21T11:44:58.053Z,10.53
2019-04-21T11:49:04.542Z,9.70
2019-04-21T11:53:10.834Z,14.73
2019-04-21T11:57:24.016Z,13.53
2019-04-21T12:01:25.612Z,13.40
2019-04-21T12:05:33.036Z,13.47
2019-04-21T12:09:39.569Z,12.57
2019-04-21T12:13:46.042Z,11.77
2019-04-21T12:17:52.274Z,11.50
2019-04-21T12:22:07.115Z,12.43
2019-04-21T12:26:07.560Z,11.33
2019-04-21T12:30:15.657Z,12.53
2019-04-21T12:34:22.157Z,12.07
2019-04-21T12:38:36.499Z,14.47
2019-04-21T12:42:38.871Z,11.90
2019-04-21T12:46:44.154Z,12.83
2019-04-21T12:50:51.902Z,11.43
2019-04-21T12:54:59.585Z,15.70
2019-04-21T12:59:05.968Z,11.37
2019-04-21T13:03:12.226Z,11.77
2019-04-21T13:07:19.427Z,13.03
2019-04-21T13:11:26.863Z,13.53
2019-04-21T13:15:33.665Z,10.87
2019-04-21T13:19:41.130Z,13.17
2019-04-21T13:23:47.482Z,9.93
2019-04-21T13:27:54.464Z,10.10
2019-04-21T13:32:03.654Z,11.27
2019-04-21T13:36:09.698Z,13.43
2019-04-21T13:40:34.114Z,12.33
2019-04-21T13:44:26.791Z,11.47
2019-04-21T13:48:34.744Z,13.00
2019-04-21T13:52:42.613Z,12.33
2019-04-21T13:56:50.382Z,12.67
2019-04-21T14:00:58.032Z,11.23
2019-04-21T14:05:10.112Z,11.23
2019-04-21T14:09:15.690Z,9.40
2019-04-21T14:13:22.554Z,11.10
2019-04-21T14:17:28.901Z,9.37
2019-04-21T14:21:35.112Z,9.77
2019-04-21T14:25:41.754Z,10.40
2019-04-21T14:29:49.141Z,11.47
2019-04-21T14:33:56.296Z,8.60
2019-04-21T14:38:02.824Z,11.00
2019-04-21T14:42:10.229Z,12.47
2019-04-21T14:46:21.549Z,6.90
2019-04-21T14:50:42.170Z,10.10
2019-04-21T14:55:00.506Z,9.30
2019-04-21T14:59:07.294Z,9.23
2019-04-21T15:03:14.109Z,11.03
2019-04-21T15:07:21.348Z,7.97
2019-04-21T15:11:27.694Z,8.53
2019-04-21T15:15:34.114Z,9.53
2019-04-21T15:19:45.199Z,7.87
2019-04-21T15:23:50.614Z,7.33
2019-04-21T15:27:57.038Z,8.17
2019-04-21T15:32:04.310Z,8.67
2019-04-21T15:36:11.229Z,10.13
2019-04-21T15:40:28.230Z,11.23
2019-04-21T15:44:27.089Z,9.30
2019-04-21T15:48:33.366Z,7.30
2019-04-21T15:52:40.182Z,7.17
2019-04-21T15:56:49.062Z,11.30
2019-04-21T16:01:03.057Z,8.60
2019-04-21T16:05:13.004Z,8.90
2019-04-21T16:09:22.336Z,8.23
2019-04-21T16:13:27.726Z,7.83
2019-04-21T16:17:35.258Z,9.67
2019-04-21T16:21:44.378Z,8.83
2019-04-21T16:25:50.749Z,9.33
2019-04-21T16:29:57.657Z,10.07
2019-04-21T16:34:05.117Z,12.27
2019-04-21T16:38:11.497Z,7.83
2019-04-21T16:42:18.314Z,10.03
2019-04-21T16:46:25.310Z,10.50
2019-04-21T16:50:31.896Z,7.00
2019-04-21T16:54:39.842Z,9.33
2019-04-21T16:58:48.414Z,8.83
2019-04-21T17:02:54.781Z,9.40
2019-04-21T17:07:01.058Z,9.10
2019-04-21T17:11:17.299Z,8.13
2019-04-21T17:15:32.362Z,10.07
2019-04-21T17:19:29.843Z,12.73
2019-04-21T17:23:33.602Z,7.50
2019-04-21T17:27:40.752Z,7.27
2019-04-21T17:31:47.712Z,10.50
2019-04-21T17:35:56.408Z,9.53
2019-04-21T17:40:05.272Z,8.70
2019-04-21T17:44:11.102Z,10.17
2019-04-21T17:48:19.370Z,9.67
2019-04-21T17:52:36.605Z,9.53
2019-04-21T17:56:59.899Z,9.67
2019-04-21T18:01:14.017Z,8.37
2019-04-21T18:05:22.630Z,9.00
2019-04-21T18:09:46.981Z,10.13
2019-04-21T18:13:26.646Z,9.20
2019-04-21T18:17:32.379Z,7.10
2019-04-21T18:21:48.354Z,10.07
2019-04-21T18:25:57.855Z,11.53
2019-04-21T18:30:00.051Z,9.07
2019-04-21T18:34:17.500Z,8.30
2019-04-21T18:38:43.204Z,8.30
2019-04-21T18:43:15.232Z,11.80
2019-04-21T18:47:14.788Z,8.07
2019-04-21T18:51:10.503Z,8.73
2019-04-21T18:55:23.944Z,10.47
2019-04-21T18:59:21.251Z,9.43
2019-04-21T19:03:35.852Z,10.63
2019-04-21T19:07:58.438Z,10.60
2019-04-21T19:12:00.841Z,9.83
2019-04-21T19:16:28.570Z,10.80
2019-04-21T19:20:22.309Z,14.00
2019-04-21T19:24:29.490Z,14.87
2019-04-21T19:28:41.909Z,15.90
2019-04-21T19:32:39.081Z,17.20
2019-04-21T19:36:34.449Z,17.07
2019-04-21T19:40:56.576Z,14.47
2019-04-21T19:45:09.261Z,14.20
2019-04-21T19:49:21.180Z,13.93
2019-04-21T19:53:21.377Z,14.73
2019-04-21T19:57:13.821Z,12.27
2019-04-21T20:01:21.352Z,14.97
2019-04-21T20:05:36.095Z,13.77
2019-04-21T20:09:50.032Z,15.07
2019-04-21T20:14:33.962Z,16.57
2019-04-21T20:18:06.254Z,11.87
2019-04-21T20:22:00.896Z,14.63
2019-04-21T20:26:09.699Z,11.50
2019-04-21T20:30:36.547Z,12.10
2019-04-21T20:34:46.158Z,11.90
2019-04-21T20:38:42.256Z,14.60
2019-04-21T20:42:51.050Z,17.07
2019-04-21T20:46:59.874Z,13.77
2019-04-21T20:51:11.829Z,18.33
2019-04-21T20:55:17.906Z,17.53
2019-04-21T20:59:24.785Z,18.00
2019-04-21T21:03:44.391Z,20.40
2019-04-21T21:08:08.575Z,18.00
2019-04-21T21:12:11.371Z,16.07
2019-04-21T21:16:10.238Z,16.70
2019-04-21T21:20:15.023Z,21.47
2019-04-21T21:24:15.124Z,18.47
2019-04-21T21:28:24.222Z,22.00
2019-04-21T21:32:31.401Z,23.20
2019-04-21T21:36:42.925Z,23.37
2019-04-21T21:40:45.605Z,21.23
2019-04-21T21:44:52.953Z,20.63
2019-04-21T21:48:59.074Z,21.23
2019-04-21T21:53:03.267Z,22.07
2019-04-21T21:57:04.874Z,23.20
2019-04-21T22:01:13.914Z,24.37
2019-04-21T22:05:27.319Z,24.47
2019-04-21T22:09:32.346Z,24.60
2019-04-21T22:13:47.628Z,26.13
2019-04-21T22:18:07.378Z,26.03
2019-04-21T22:22:14.077Z,27.07
2019-04-21T22:26:03.153Z,21.23
2019-04-21T22:30:14.681Z,18.17
2019-04-21T22:34:29.461Z,19.43
2019-04-21T22:38:40.923Z,18.50
2019-04-21T22:42:44.967Z,20.17
2019-04-21T22:46:54.791Z,19.57
2019-04-21T22:50:52.697Z,15.87
2019-04-21T22:55:03.325Z,19.57
2019-04-21T22:59:10.963Z,19.73
2019-04-21T23:03:19.257Z,15.63
2019-04-21T23:07:24.695Z,18.37
2019-04-21T23:11:38.717Z,18.87
2019-04-21T23:15:46.134Z,17.03
2019-04-21T23:20:14.526Z,17.90
2019-04-21T23:24:11.277Z,18.63
2019-04-21T23:28:16.105Z,16.90
2019-04-21T23:32:25.705Z,18.43
2019-04-21T23:36:24.155Z,18.00
2019-04-21T23:40:28.931Z,19.37
2019-04-21T23:44:42.857Z,16.53
2019-04-21T23:49:05.525Z,15.10
2019-04-21T23:52:49.830Z,17.15
2019-04-21T23:56:56.116Z,17.13
